createdAt,value
2022-11-26T00:04:36.929Z,14.74
2022-11-26T00:09:39.109Z,14.76
2022-11-26T00:14:41.054Z,14.88
2022-11-26T00:19:44.570Z,14.87
2022-11-26T00:24:46.336Z,14.99
2022-11-26T00:29:48.177Z,15.12
2022-11-26T00:34:51.353Z,15.02
2022-11-26T00:39:53.169Z,15.13
2022-11-26T00:44:54.928Z,15.12
2022-11-26T00:49:58.027Z,15.23
2022-11-26T00:54:59.816Z,14.95
2022-11-26T01:00:01.646Z,14.98
2022-11-26T01:05:05.763Z,14.85
2022-11-26T01:10:21.668Z,14.93
2022-11-26T01:15:24.308Z,15.14
2022-11-26T01:20:29.710Z,15.13
2022-11-26T01:25:31.615Z,14.45
2022-11-26T01:30:33.661Z,14.21
2022-11-26T01:35:37.008Z,14.49
2022-11-26T01:40:49.247Z,14.73
2022-11-26T01:45:51.176Z,14.71
2022-11-26T01:50:59.586Z,14.72
2022-11-26T01:56:04.185Z,14.12
2022-11-26T02:01:06.125Z,14.19
2022-11-26T02:06:11.816Z,14.09
2022-11-26T02:11:18.132Z,14.14
2022-11-26T02:16:27.805Z,14.15
2022-11-26T02:21:30.973Z,14.23
2022-11-26T02:27:14.588Z,14.22
2022-11-26T02:32:20.823Z,14.33
2022-11-26T02:37:24.485Z,14.05
2022-11-26T02:42:27.960Z,14.23
2022-11-26T02:47:31.294Z,14.33
2022-11-26T02:52:33.062Z,13.93
2022-11-26T02:57:36.261Z,14.06
2022-11-26T03:02:41.253Z,14.18
2022-11-26T03:07:43.724Z,14.12
2022-11-26T03:12:45.877Z,14.04
2022-11-26T03:17:48.970Z,14.17
2022-11-26T03:22:50.789Z,13.95
2022-11-26T03:27:52.671Z,13.96
2022-11-26T03:32:55.913Z,14.18
2022-11-26T03:37:57.699Z,13.99
2022-11-26T03:43:02.576Z,13.89
2022-11-26T03:48:07.432Z,14.29
2022-11-26T03:53:09.266Z,14.44
2022-11-26T03:58:11.165Z,14.65
2022-11-26T04:03:14.315Z,14.55
2022-11-26T04:08:16.322Z,14.57
2022-11-26T04:13:18.201Z,14.45
2022-11-26T04:18:21.419Z,14.67
2022-11-26T04:23:23.943Z,15.02
2022-11-26T04:28:25.820Z,14.48
2022-11-26T04:33:28.987Z,14.37
2022-11-26T04:38:31.518Z,14.56
2022-11-26T04:43:35.399Z,14.13
2022-11-26T04:48:38.678Z,14.19
2022-11-26T04:53:40.431Z,14.38
2022-11-26T04:58:42.177Z,14.28
2022-11-26T05:03:45.310Z,14.45
2022-11-26T05:08:47.070Z,14.40
2022-11-26T05:13:48.932Z,13.87
2022-11-26T05:18:52.103Z,13.94
2022-11-26T05:23:53.900Z,14.05
2022-11-26T05:28:55.727Z,13.83
2022-11-26T05:33:58.814Z,13.81
2022-11-26T05:39:00.639Z,14.09
2022-11-26T05:44:02.635Z,13.82
2022-11-26T05:49:05.747Z,14.12
2022-11-26T05:54:07.795Z,13.91
2022-11-26T05:59:09.764Z,13.82
2022-11-26T06:04:12.911Z,14.00
2022-11-26T06:09:14.853Z,13.75
2022-11-26T06:14:16.729Z,13.83
2022-11-26T06:19:20.104Z,14.09
2022-11-26T06:24:22.019Z,14.45
2022-11-26T06:29:27.908Z,14.51
2022-11-26T06:34:31.845Z,14.43
2022-11-26T06:39:33.604Z,14.36
2022-11-26T06:44:35.289Z,14.45
2022-11-26T06:49:38.693Z,14.33
2022-11-26T06:54:40.664Z,14.13
2022-11-26T06:59:42.663Z,13.94
2022-11-26T07:04:46.754Z,13.74
2022-11-26T07:09:48.577Z,13.64
2022-11-26T07:14:50.404Z,13.75
2022-11-26T07:19:53.508Z,13.82
2022-11-26T07:24:55.237Z,13.68
2022-11-26T07:29:56.984Z,13.38
2022-11-26T07:35:01.742Z,13.59
2022-11-26T07:40:04.248Z,13.68
2022-11-26T07:45:12.082Z,13.93
2022-11-26T07:50:17.081Z,14.31
2022-11-26T07:55:19.337Z,13.99
2022-11-26T08:00:21.790Z,13.76
2022-11-26T08:05:24.896Z,13.61
2022-11-26T08:10:27.069Z,13.78
2022-11-26T08:15:28.878Z,13.58
2022-11-26T08:20:31.985Z,13.62
2022-11-26T08:25:33.740Z,13.54
2022-11-26T08:30:35.843Z,13.58
2022-11-26T08:36:05.629Z,13.65
2022-11-26T08:41:00.892Z,13.80
2022-11-26T08:46:02.889Z,13.41
2022-11-26T08:51:07.950Z,13.74
2022-11-26T08:56:10.906Z,14.04
2022-11-26T09:01:13.824Z,13.99
2022-11-26T09:06:17.135Z,14.29
2022-11-26T09:11:18.877Z,14.46
2022-11-26T09:16:20.768Z,15.04
2022-11-26T09:21:24.108Z,15.32
2022-11-26T09:26:25.926Z,15.42
2022-11-26T09:31:27.759Z,15.55
2022-11-26T09:36:30.909Z,15.41
2022-11-26T09:41:39.869Z,15.43
2022-11-26T09:47:10.103Z,15.26
2022-11-26T09:52:08.471Z,15.23
2022-11-26T09:57:17.730Z,15.29
2022-11-26T10:02:19.514Z,15.53
2022-11-26T10:07:36.486Z,15.82
2022-11-26T10:13:16.818Z,15.54
2022-11-26T10:18:13.663Z,15.61
2022-11-26T10:23:21.007Z,16.00
2022-11-26T10:28:26.498Z,16.23
2022-11-26T10:33:30.200Z,16.36
2022-11-26T10:38:33.376Z,16.82
2022-11-26T10:43:35.112Z,16.49
2022-11-26T10:48:37.062Z,16.56
2022-11-26T10:53:50.701Z,16.99
2022-11-26T10:58:53.019Z,16.83
2022-11-26T11:04:10.544Z,16.82
2022-11-26T11:09:24.911Z,16.44
2022-11-26T11:14:28.079Z,16.36
2022-11-26T11:19:29.797Z,16.41
2022-11-26T11:24:32.944Z,16.55
2022-11-26T11:29:36.526Z,16.40
2022-11-26T11:34:39.305Z,16.68
2022-11-26T11:39:42.725Z,17.09
2022-11-26T11:44:45.673Z,16.95
2022-11-26T11:49:53.282Z,16.94
2022-11-26T11:55:00.093Z,16.63
2022-11-26T12:00:12.064Z,16.84
2022-11-26T12:05:28.211Z,17.00
2022-11-26T12:10:35.725Z,16.65
2022-11-26T12:15:39.383Z,16.85
2022-11-26T12:20:44.170Z,16.72
2022-11-26T12:25:48.282Z,16.51
2022-11-26T12:30:52.321Z,16.85
2022-11-26T12:35:55.929Z,17.35
2022-11-26T12:41:01.569Z,17.66
2022-11-26T12:46:06.144Z,17.01
2022-11-26T12:51:15.464Z,17.23
2022-11-26T12:56:20.329Z,17.45
2022-11-26T13:01:24.045Z,17.61
2022-11-26T13:06:42.199Z,17.22
2022-11-26T13:11:48.376Z,17.11
2022-11-26T13:16:52.646Z,17.06
2022-11-26T13:22:11.949Z,17.18
2022-11-26T13:27:33.508Z,17.19
2022-11-26T13:32:50.367Z,16.88
2022-11-26T13:38:03.225Z,16.96
2022-11-26T13:43:44.038Z,17.34
2022-11-26T13:48:50.885Z,17.02
2022-11-26T13:53:54.799Z,17.17
2022-11-26T13:58:59.807Z,17.44
2022-11-26T14:04:03.405Z,17.07
2022-11-26T14:09:05.763Z,16.62
2022-11-26T14:14:31.707Z,16.36
2022-11-26T14:20:01.041Z,16.44
2022-11-26T14:25:04.374Z,16.16
2022-11-26T14:30:19.732Z,16.56
2022-11-26T14:35:29.207Z,16.69
2022-11-26T14:40:34.931Z,16.64
2022-11-26T14:45:38.178Z,16.42
2022-11-26T14:50:39.992Z,16.22
2022-11-26T14:55:43.097Z,16.37
2022-11-26T15:01:00.493Z,16.50
2022-11-26T15:06:02.288Z,16.72
2022-11-26T15:11:05.267Z,16.57
2022-11-26T15:21:40.030Z,16.76
2022-11-26T15:26:44.999Z,16.72
2022-11-26T15:31:47.175Z,16.60
2022-11-26T15:36:50.242Z,16.23
2022-11-26T15:41:52.449Z,15.70
2022-11-26T15:46:55.454Z,15.86
2022-11-26T15:51:59.556Z,15.93
2022-11-26T15:57:07.859Z,15.41
2022-11-26T16:02:16.718Z,15.91
2022-11-26T16:07:21.334Z,15.81
2022-11-26T16:12:28.165Z,15.57
2022-11-26T16:17:29.946Z,15.60
2022-11-26T16:22:33.262Z,15.16
2022-11-26T16:27:35.062Z,14.95
2022-11-26T16:32:36.880Z,14.79
2022-11-26T16:37:43.211Z,14.66
2022-11-26T16:42:45.334Z,14.68
2022-11-26T16:47:48.479Z,14.72
2022-11-26T16:52:51.823Z,14.69
2022-11-26T16:57:56.680Z,14.55
2022-11-26T17:02:58.938Z,14.45
2022-11-26T17:08:02.377Z,14.47
2022-11-26T17:13:04.411Z,14.56
2022-11-26T17:18:18.147Z,14.41
2022-11-26T17:23:21.359Z,14.40
2022-11-26T17:28:23.197Z,14.20
2022-11-26T17:33:25.030Z,14.14
2022-11-26T17:38:29.486Z,14.12
2022-11-26T17:43:34.239Z,14.17
2022-11-26T17:48:36.031Z,14.20
2022-11-26T17:53:39.133Z,14.09
2022-11-26T17:58:40.947Z,13.78
2022-11-26T18:03:42.803Z,14.24
2022-11-26T18:08:46.230Z,14.14
2022-11-26T18:13:48.082Z,13.80
2022-11-26T18:18:49.835Z,13.96
2022-11-26T18:23:53.317Z,13.52
2022-11-26T18:28:55.132Z,13.72
2022-11-26T18:33:56.908Z,13.75
2022-11-26T18:39:02.676Z,13.91
2022-11-26T18:44:04.539Z,13.02
2022-11-26T18:49:06.649Z,12.87
2022-11-26T18:54:09.883Z,13.10
2022-11-26T18:59:12.456Z,13.12
2022-11-26T19:04:14.233Z,12.82
2022-11-26T19:09:18.022Z,12.67
2022-11-26T19:14:19.886Z,13.63
2022-11-26T19:19:21.872Z,12.78
2022-11-26T19:24:24.934Z,12.90
2022-11-26T19:29:26.726Z,12.92
2022-11-26T19:34:28.590Z,13.04
2022-11-26T19:39:31.909Z,12.86
2022-11-26T19:44:33.982Z,12.81
2022-11-26T19:49:35.766Z,13.05
2022-11-26T19:54:38.960Z,12.90
2022-11-26T19:59:41.030Z,12.90
2022-11-26T20:04:43.129Z,13.27
2022-11-26T20:09:46.257Z,13.55
2022-11-26T20:14:48.043Z,13.59
2022-11-26T20:19:49.823Z,13.67
2022-11-26T20:24:53.033Z,13.59
2022-11-26T20:29:54.770Z,13.52
2022-11-26T20:34:57.918Z,13.66
2022-11-26T20:40:01.032Z,13.79
2022-11-26T20:45:03.296Z,13.78
2022-11-26T20:50:06.732Z,13.74
2022-11-26T20:55:10.216Z,13.69
2022-11-26T21:00:16.899Z,13.73
2022-11-26T21:05:19.133Z,13.80
2022-11-26T21:10:26.266Z,13.68
2022-11-26T21:15:28.202Z,13.72
2022-11-26T21:20:34.822Z,13.75
2022-11-26T21:25:39.711Z,13.64
2022-11-26T21:30:41.596Z,13.75
2022-11-26T21:35:43.509Z,13.59
2022-11-26T21:40:46.628Z,13.67
2022-11-26T21:45:48.490Z,13.63
2022-11-26T21:50:50.383Z,13.86
2022-11-26T21:55:53.529Z,13.70
2022-11-26T22:00:55.319Z,13.70
2022-11-26T22:05:58.434Z,13.61
2022-11-26T22:11:07.042Z,13.68
2022-11-26T22:16:09.244Z,13.54
2022-11-26T22:21:12.261Z,13.60
2022-11-26T22:26:15.392Z,13.61
2022-11-26T22:31:18.704Z,13.45
2022-11-26T22:36:20.487Z,13.50
2022-11-26T22:41:23.599Z,13.43
2022-11-26T22:46:25.475Z,13.44
2022-11-26T22:51:28.100Z,13.42
2022-11-26T22:56:31.605Z,13.31
2022-11-26T23:01:34.512Z,13.32
2022-11-26T23:06:36.693Z,12.69
2022-11-26T23:11:41.465Z,13.05
2022-11-26T23:16:43.565Z,12.55
2022-11-26T23:21:46.759Z,13.00
2022-11-26T23:26:50.297Z,12.95
2022-11-26T23:31:52.320Z,12.98
2022-11-26T23:36:54.140Z,13.00
2022-11-26T23:41:57.431Z,13.05
2022-11-26T23:46:59.313Z,13.00
2022-11-26T23:52:01.301Z,13.13
2022-11-26T23:57:05.078Z,13.04
